Time;durP1;ratioP1;P1;durP2;ratioP2;P2;SDS_P1;SDS_P2;PMS_P1;PMS_P2;Temp;Humidity;BMP_temperature;BMP_pressure;BME280_temperature;BME280_humidity;BME280_pressure;Samples;Min_cycle;Max_cycle;Signal;HPM_P1;HPM_P2
2023/06/29 00:01:27;;;;;;;10.82;6.80;;;27.60;99.90;;;;;;4955476;29;20051;-53
2023/06/29 00:03:53;;;;;;;14.77;6.70;;;27.70;99.90;;;;;;4954999;28;20079;-51
2023/06/29 00:06:19;;;;;;;11.52;6.88;;;27.60;99.90;;;;;;4955106;28;20100;-51
2023/06/29 00:08:48;;;;;;;12.38;6.55;;;27.60;99.90;;;;;;4955040;29;20019;-51
2023/06/29 00:11:14;;;;;;;11.63;6.28;;;27.60;99.90;;;;;;4955030;28;20032;-50
2023/06/29 00:13:39;;;;;;;10.50;6.20;;;27.60;99.90;;;;;;4954855;28;20102;-51
2023/06/29 00:16:05;;;;;;;10.85;6.38;;;27.60;99.90;;;;;;4955214;28;20059;-51
2023/06/29 00:18:32;;;;;;;10.13;7.53;;;27.60;99.90;;;;;;4954903;28;20027;-52
2023/06/29 00:21:00;;;;;;;10.90;6.72;;;27.60;99.90;;;;;;4954729;29;20038;-51
2023/06/29 00:23:26;;;;;;;10.73;6.47;;;27.60;99.90;;;;;;4952852;28;20110;-50
2023/06/29 00:25:55;;;;;;;10.80;6.93;;;27.60;99.90;;;;;;4953200;29;20114;-51
2023/06/29 00:28:21;;;;;;;12.15;7.28;;;27.60;99.90;;;;;;4954603;28;20096;-53
2023/06/29 00:30:47;;;;;;;10.43;6.55;;;27.60;99.90;;;;;;4954822;28;20523;-52
2023/06/29 00:33:13;;;;;;;9.93;6.00;;;27.60;99.90;;;;;;4954583;28;20047;-52
2023/06/29 00:35:38;;;;;;;7.85;5.53;;;27.60;99.90;;;;;;4954743;28;20030;-52
2023/06/29 00:38:04;;;;;;;11.25;5.65;;;27.60;99.90;;;;;;4954631;28;20054;-52
2023/06/29 00:40:30;;;;;;;8.73;6.15;;;27.60;99.90;;;;;;4954574;28;20035;-53
2023/06/29 00:42:56;;;;;;;10.13;5.68;;;27.50;99.90;;;;;;4954574;29;20031;-53
2023/06/29 00:45:21;;;;;;;7.57;5.45;;;27.50;99.90;;;;;;4954283;28;20035;-52
2023/06/29 00:47:47;;;;;;;10.77;5.90;;;27.50;99.90;;;;;;4954489;28;20472;-52
2023/06/29 00:50:14;;;;;;;10.50;6.45;;;27.50;99.90;;;;;;4954339;28;20086;-52
2023/06/29 00:52:40;;;;;;;9.18;6.22;;;27.40;99.90;;;;;;4954278;28;20027;-50
2023/06/29 00:55:06;;;;;;;10.75;5.63;;;27.40;99.90;;;;;;4954323;28;20416;-52
2023/06/29 00:57:32;;;;;;;7.78;6.00;;;27.40;99.90;;;;;;4954509;28;20380;-50
2023/06/29 01:00:00;;;;;;;9.43;6.25;;;27.40;99.90;;;;;;4954150;28;20098;-51
2023/06/29 01:02:35;;;;;;;10.00;6.78;;;27.40;99.90;;;;;;4953745;23;20556;-55
2023/06/29 01:05:03;;;;;;;8.75;6.13;;;27.40;99.90;;;;;;4933919;29;20039;-55
2023/06/29 01:08:00;;;;;;;13.73;6.40;;;27.40;99.90;;;;;;4931997;29;20028;-56
2023/06/29 01:10:29;;;;;;;9.27;6.28;;;27.40;99.90;;;;;;4934796;29;20055;-56
2023/06/29 01:12:56;;;;;;;10.68;6.53;;;27.40;99.90;;;;;;4935036;29;20079;-56
2023/06/29 01:15:22;;;;;;;11.35;7.40;;;27.40;99.90;;;;;;4935009;29;20114;-53
2023/06/29 01:17:51;;;;;;;10.13;7.40;;;27.40;99.90;;;;;;4934865;29;20024;-55
2023/06/29 01:20:19;;;;;;;14.90;7.85;;;27.40;99.90;;;;;;4933643;29;20432;-53
2023/06/29 01:23:05;;;;;;;13.70;8.02;;;27.40;99.90;;;;;;4935004;29;20453;-55
2023/06/29 01:25:32;;;;;;;16.58;8.18;;;27.40;99.90;;;;;;4934050;29;20074;-54
2023/06/29 01:27:58;;;;;;;12.10;7.82;;;27.40;99.90;;;;;;4934884;29;20026;-55
2023/06/29 01:30:24;;;;;;;13.20;7.85;;;27.40;99.90;;;;;;4934925;29;20019;-55
2023/06/29 01:32:50;;;;;;;17.02;7.93;;;27.40;99.90;;;;;;4934836;29;20028;-53
2023/06/29 01:35:16;;;;;;;14.70;7.55;;;27.40;99.90;;;;;;4936529;29;20457;-55
2023/06/29 01:37:46;;;;;;;12.05;8.18;;;27.40;99.90;;;;;;4938691;29;20055;-55
2023/06/29 01:40:17;;;;;;;12.00;8.18;;;27.40;99.90;;;;;;4938674;29;20028;-55
2023/06/29 01:42:43;;;;;;;14.35;8.82;;;27.40;99.90;;;;;;4938801;29;20108;-55
2023/06/29 01:45:11;;;;;;;12.90;7.78;;;27.40;99.90;;;;;;4938617;29;20039;-55
2023/06/29 01:47:37;;;;;;;;;;;27.40;99.90;;;;;;4937794;29;20027;-54
2023/06/29 01:50:04;;;;;;;12.48;7.32;;;27.40;99.90;;;;;;4938566;29;19997;-54
2023/06/29 01:52:30;;;;;;;11.73;7.15;;;27.40;99.90;;;;;;4937311;29;20027;-56
2023/06/29 01:54:55;;;;;;;15.45;7.78;;;27.40;99.90;;;;;;4938518;29;20371;-56
2023/06/29 01:57:21;;;;;;;12.77;7.82;;;27.40;99.90;;;;;;4938512;29;20020;-55
2023/06/29 01:59:47;;;;;;;13.95;6.75;;;27.40;99.90;;;;;;4938332;29;20107;-55
2023/06/29 02:02:13;;;;;;;14.95;6.95;;;27.40;99.90;;;;;;4938627;29;20071;-55
2023/06/29 02:04:39;;;;;;;18.85;7.53;;;27.40;99.90;;;;;;4938359;29;20040;-54
2023/06/29 02:07:05;;;;;;;12.50;7.25;;;27.40;99.90;;;;;;4938127;29;20453;-54
2023/06/29 02:09:31;;;;;;;9.27;6.70;;;27.40;99.90;;;;;;4938224;29;20055;-55
2023/06/29 02:11:56;;;;;;;11.85;6.75;;;27.40;99.90;;;;;;4938085;29;20036;-55
2023/06/29 02:14:23;;;;;;;11.10;6.85;;;27.40;99.90;;;;;;4938010;29;20428;-55
2023/06/29 02:16:51;;;;;;;10.23;7.72;;;27.40;99.90;;;;;;4938090;29;20102;-54
2023/06/29 02:19:17;;;;;;;8.85;6.95;;;27.40;99.90;;;;;;4938048;29;20031;-53
2023/06/29 02:21:43;;;;;;;11.20;5.40;;;27.40;99.90;;;;;;4938101;29;20030;-54
2023/06/29 02:24:08;;;;;;;10.98;6.72;;;27.40;99.90;;;;;;4937684;29;20118;-55
2023/06/29 02:26:34;;;;;;;9.20;5.88;;;27.40;99.90;;;;;;4937865;29;20070;-54
2023/06/29 02:29:00;;;;;;;10.18;6.30;;;27.40;99.90;;;;;;4937921;29;20078;-54
2023/06/29 02:31:26;;;;;;;10.18;6.10;;;27.40;99.90;;;;;;4937789;29;20040;-54
2023/06/29 02:33:51;;;;;;;13.07;6.53;;;27.40;99.90;;;;;;4937881;29;20032;-53
2023/06/29 02:36:20;;;;;;;11.07;6.47;;;27.40;99.90;;;;;;4937545;29;20106;-54
2023/06/29 02:38:47;;;;;;;12.02;6.70;;;27.40;99.90;;;;;;4937771;29;20023;-54
2023/06/29 02:41:13;;;;;;;14.10;6.10;;;27.40;99.90;;;;;;4937982;29;20031;-55
2023/06/29 02:43:38;;;;;;;14.48;6.32;;;27.40;99.90;;;;;;4937317;29;20028;-55
2023/06/29 02:46:04;;;;;;;11.27;5.95;;;27.40;99.90;;;;;;4936816;29;20091;-55
2023/06/29 02:48:30;;;;;;;10.68;6.07;;;27.40;99.90;;;;;;4937256;29;20381;-54
2023/06/29 02:50:56;;;;;;;8.63;6.13;;;27.40;99.90;;;;;;4937583;29;20067;-55
2023/06/29 02:53:22;;;;;;;9.82;6.47;;;27.40;99.90;;;;;;4937407;29;20111;-54
2023/06/29 02:55:48;;;;;;;11.15;6.45;;;27.40;99.90;;;;;;4937228;29;20826;-56
2023/06/29 02:58:14;;;;;;;9.50;5.60;;;27.40;99.90;;;;;;4937510;29;20176;-55
2023/06/29 03:00:39;;;;;;;8.80;5.93;;;27.40;99.90;;;;;;4937611;29;20048;-54
2023/06/29 03:03:05;;;;;;;13.52;6.18;;;27.40;99.90;;;;;;4937096;29;20039;-54
2023/06/29 03:05:31;;;;;;;10.50;6.45;;;27.30;99.90;;;;;;4937144;29;20043;-55
2023/06/29 03:07:56;;;;;;;13.18;6.93;;;27.30;99.90;;;;;;4937156;29;20107;-54
2023/06/29 03:10:22;;;;;;;20.73;8.55;;;27.40;99.90;;;;;;4937125;29;20078;-55
2023/06/29 03:12:48;;;;;;;21.55;7.40;;;27.40;99.90;;;;;;4936964;29;20026;-54
2023/06/29 03:15:14;;;;;;;14.57;7.38;;;27.40;99.90;;;;;;4937225;29;20027;-54
2023/06/29 03:17:40;;;;;;;14.40;6.68;;;27.40;99.90;;;;;;4937054;29;20024;-54
2023/06/29 03:20:06;;;;;;;18.25;7.47;;;27.40;99.90;;;;;;4936861;29;20384;-53
2023/06/29 03:22:33;;;;;;;11.63;5.93;;;27.40;99.90;;;;;;4936828;29;20572;-54
2023/06/29 03:24:58;;;;;;;11.80;6.85;;;27.30;99.90;;;;;;4936599;29;20404;-54
2023/06/29 03:27:24;;;;;;;9.00;6.68;;;27.40;99.90;;;;;;4936756;29;20087;-54
2023/06/29 03:29:52;;;;;;;19.13;6.85;;;27.40;99.90;;;;;;4936741;29;20040;-54
2023/06/29 03:32:18;;;;;;;24.10;6.93;;;27.30;99.90;;;;;;4936832;29;20062;-54
2023/06/29 03:34:44;;;;;;;17.70;6.65;;;27.30;99.90;;;;;;4936731;29;20589;-53
2023/06/29 03:37:10;;;;;;;15.50;6.93;;;27.30;99.90;;;;;;4936574;29;20106;-53
2023/06/29 03:39:35;;;;;;;11.43;6.50;;;27.30;99.90;;;;;;4936243;29;20071;-54
2023/06/29 03:42:01;;;;;;;10.50;6.03;;;27.30;99.90;;;;;;4936652;29;20015;-54
2023/06/29 03:44:27;;;;;;;15.00;6.03;;;27.20;99.90;;;;;;4936752;29;20032;-54
2023/06/29 03:46:53;;;;;;;15.82;6.78;;;27.20;99.90;;;;;;4935421;28;20163;-53
2023/06/29 03:49:18;;;;;;;18.83;6.50;;;27.20;99.90;;;;;;4935067;29;20106;-54
2023/06/29 03:51:44;;;;;;;16.08;7.38;;;27.20;99.90;;;;;;4952059;29;20485;-54
2023/06/29 03:54:10;;;;;;;14.73;6.63;;;27.20;99.90;;;;;;4955258;29;20027;-55
2023/06/29 03:56:36;;;;;;;12.98;6.85;;;27.20;99.90;;;;;;4955299;28;20102;-54
2023/06/29 03:59:02;;;;;;;12.45;6.28;;;27.20;99.90;;;;;;4955260;28;20019;-55
2023/06/29 04:01:27;;;;;;;10.82;6.63;;;27.20;99.90;;;;;;4955571;28;20578;-55
2023/06/29 04:03:53;;;;;;;20.35;7.15;;;27.20;99.90;;;;;;4954448;28;20035;-55
2023/06/29 04:06:19;;;;;;;17.40;7.45;;;27.10;99.90;;;;;;4955438;28;20042;-55
2023/06/29 04:08:45;;;;;;;14.88;7.10;;;27.10;99.90;;;;;;4955333;28;20022;-55
2023/06/29 04:11:12;;;;;;;14.93;7.70;;;27.10;99.90;;;;;;4955337;29;20030;-55
2023/06/29 04:13:38;;;;;;;15.32;8.32;;;27.10;99.90;;;;;;4955141;28;20062;-55
2023/06/29 04:16:04;;;;;;;15.98;7.85;;;27.00;99.90;;;;;;4955059;28;20113;-54
2023/06/29 04:18:29;;;;;;;16.98;8.45;;;27.10;99.90;;;;;;4955094;28;20034;-54
2023/06/29 04:20:55;;;;;;;26.42;8.90;;;27.00;99.90;;;;;;4954887;28;20361;-54
2023/06/29 04:23:21;;;;;;;28.45;9.23;;;27.00;99.90;;;;;;4954783;28;20102;-53
2023/06/29 04:25:47;;;;;;;27.75;9.32;;;27.00;99.90;;;;;;4954952;28;20035;-53
2023/06/29 04:28:13;;;;;;;29.92;8.68;;;27.00;99.90;;;;;;4954858;28;20023;-53
2023/06/29 04:30:42;;;;;;;22.92;9.85;;;27.00;99.90;;;;;;4954713;28;20110;-54
2023/06/29 04:33:11;;;;;;;21.25;9.95;;;27.00;99.90;;;;;;4953585;29;20031;-54
2023/06/29 04:35:41;;;;;;;23.02;7.88;;;27.00;99.90;;;;;;4954612;28;20451;-54
2023/06/29 04:38:10;;;;;;;17.52;8.50;;;27.00;99.90;;;;;;4954631;29;20033;-54
2023/06/29 04:40:39;;;;;;;19.55;8.77;;;27.00;99.90;;;;;;4954719;28;20058;-53
2023/06/29 04:43:06;;;;;;;27.48;9.63;;;27.00;99.90;;;;;;4954617;28;20484;-54
2023/06/29 04:45:32;;;;;;;17.05;8.50;;;26.90;99.90;;;;;;4954531;28;20102;-55
2023/06/29 04:47:59;;;;;;;21.25;9.23;;;26.90;99.90;;;;;;4954644;28;20028;-55
2023/06/29 04:50:31;;;;;;;14.25;9.20;;;26.90;99.90;;;;;;4954331;28;20488;-55
2023/06/29 04:53:08;;;;;;;15.75;9.43;;;26.90;99.90;;;;;;4954698;28;20070;-55
2023/06/29 04:55:35;;;;;;;16.95;9.75;;;26.90;99.90;;;;;;4954498;28;20050;-55
2023/06/29 04:58:01;;;;;;;17.17;8.52;;;26.90;99.90;;;;;;4953047;29;20451;-54
2023/06/29 05:00:27;;;;;;;17.17;8.95;;;26.90;99.90;;;;;;4952831;28;20031;-54
2023/06/29 05:02:53;;;;;;;17.63;9.88;;;26.80;99.90;;;;;;4952072;28;20062;-54
2023/06/29 05:05:18;;;;;;;22.75;10.07;;;26.80;99.90;;;;;;4952382;28;20471;-54
2023/06/29 05:07:44;;;;;;;17.15;10.38;;;26.70;99.90;;;;;;4952418;28;20059;-54
2023/06/29 05:10:10;;;;;;;21.40;9.10;;;26.70;99.90;;;;;;4951596;28;20058;-54
2023/06/29 05:12:36;;;;;;;16.70;9.30;;;26.70;99.90;;;;;;4951984;28;20092;-55
2023/06/29 05:15:01;;;;;;;19.80;10.20;;;26.70;99.90;;;;;;4952021;29;20027;-57
2023/06/29 05:17:27;;;;;;;16.30;9.80;;;26.70;99.90;;;;;;4953305;28;20503;-56
2023/06/29 05:19:53;;;;;;;21.00;9.63;;;26.60;99.90;;;;;;4954190;28;20365;-56
2023/06/29 05:22:19;;;;;;;17.95;9.40;;;26.60;99.90;;;;;;4954124;28;20024;-56
2023/06/29 05:24:45;;;;;;;15.07;8.88;;;26.60;99.90;;;;;;4953859;29;20125;-56
2023/06/29 05:27:10;;;;;;;19.05;9.77;;;26.60;99.90;;;;;;4952740;29;20062;-55
2023/06/29 05:29:37;;;;;;;18.50;9.00;;;26.60;99.90;;;;;;4952810;29;20502;-54
2023/06/29 05:32:04;;;;;;;12.80;8.10;;;26.60;99.90;;;;;;4954002;28;20034;-56
2023/06/29 05:34:30;;;;;;;12.23;8.03;;;26.60;99.90;;;;;;4954056;28;20028;-56
2023/06/29 05:36:56;;;;;;;13.95;7.45;;;26.60;99.90;;;;;;4953898;29;20027;-55
2023/06/29 05:39:21;;;;;;;12.85;7.00;;;26.60;99.90;;;;;;4954125;29;20031;-55
2023/06/29 05:41:48;;;;;;;17.98;6.60;;;26.60;99.90;;;;;;4953852;28;20027;-57
2023/06/29 05:44:14;;;;;;;17.40;7.43;;;26.60;99.90;;;;;;4953928;28;20090;-57
2023/06/29 05:46:39;;;;;;;17.05;8.35;;;26.60;99.90;;;;;;4953912;28;20027;-57
2023/06/29 05:49:05;;;;;;;14.13;7.13;;;26.60;99.90;;;;;;4953855;28;20082;-57
2023/06/29 05:51:33;;;;;;;15.23;7.82;;;26.70;99.90;;;;;;4953817;28;20067;-56
2023/06/29 05:53:58;;;;;;;10.38;7.45;;;26.60;99.90;;;;;;4953658;28;20473;-54
2023/06/29 05:56:24;;;;;;;14.57;6.95;;;26.60;99.90;;;;;;4953952;28;20074;-54
2023/06/29 05:58:50;;;;;;;11.90;6.63;;;26.70;99.90;;;;;;4953847;29;20027;-55
2023/06/29 06:01:16;;;;;;;10.55;6.78;;;26.60;99.90;;;;;;4953590;28;20268;-55
2023/06/29 06:03:41;;;;;;;11.20;6.60;;;26.70;99.90;;;;;;4953728;28;20054;-57
2023/06/29 06:06:07;;;;;;;14.85;6.78;;;26.70;99.90;;;;;;4953590;29;20094;-57
2023/06/29 06:08:33;;;;;;;15.85;7.45;;;26.70;99.90;;;;;;4953643;29;20118;-56
2023/06/29 06:10:59;;;;;;;11.18;5.95;;;26.70;99.90;;;;;;4953692;29;20152;-56
2023/06/29 06:13:25;;;;;;;12.85;7.07;;;26.70;99.90;;;;;;4953831;28;20035;-57
2023/06/29 06:15:50;;;;;;;10.57;6.30;;;26.70;99.90;;;;;;4953472;28;20039;-55
2023/06/29 06:18:16;;;;;;;14.05;5.43;;;26.70;99.90;;;;;;4953558;28;20038;-56
2023/06/29 06:20:42;;;;;;;10.02;5.60;;;26.70;99.90;;;;;;4953472;28;20494;-56
2023/06/29 06:23:08;;;;;;;15.38;5.55;;;26.80;99.90;;;;;;4955637;28;20019;-56
2023/06/29 06:25:34;;;;;;;11.13;6.40;;;26.80;99.90;;;;;;4953541;29;20094;-55
2023/06/29 06:28:00;;;;;;;10.75;6.30;;;26.80;99.90;;;;;;4955567;29;20070;-55
2023/06/29 06:30:26;;;;;;;10.27;5.57;;;26.90;99.90;;;;;;4954536;28;20027;-54
2023/06/29 06:32:52;;;;;;;9.77;5.97;;;26.90;99.90;;;;;;4956996;29;20034;-53
2023/06/29 06:35:18;;;;;;;10.30;5.50;;;26.90;99.90;;;;;;4955241;29;20380;-55
2023/06/29 06:37:45;;;;;;;8.52;5.35;;;27.00;99.90;;;;;;4956764;28;20026;-54
2023/06/29 06:40:11;;;;;;;10.65;7.10;;;27.00;99.90;;;;;;4956606;28;20106;-54
2023/06/29 06:42:38;;;;;;;10.20;5.87;;;27.00;99.90;;;;;;4956841;28;20015;-55
2023/06/29 06:45:05;;;;;;;13.32;6.10;;;27.00;99.90;;;;;;4956658;28;20292;-55
2023/06/29 06:47:32;;;;;;;16.08;8.05;;;27.10;99.90;;;;;;4956423;28;20031;-55
2023/06/29 06:49:59;;;;;;;22.67;8.13;;;27.10;99.90;;;;;;4956293;28;20050;-55
2023/06/29 06:52:25;;;;;;;25.67;16.17;;;27.20;99.90;;;;;;4955960;28;20075;-55
2023/06/29 06:54:51;;;;;;;26.30;13.93;;;27.20;99.90;;;;;;4956342;29;20032;-54
2023/06/29 06:57:18;;;;;;;25.10;13.75;;;27.20;99.90;;;;;;4955032;29;20158;-55
2023/06/29 06:59:44;;;;;;;30.73;16.63;;;27.30;99.90;;;;;;4956213;28;20054;-54
2023/06/29 07:02:10;;;;;;;19.70;12.35;;;27.30;99.90;;;;;;4956288;28;20074;-55
2023/06/29 07:04:36;;;;;;;21.60;11.02;;;27.30;99.90;;;;;;4956232;29;20062;-55
2023/06/29 07:07:02;;;;;;;23.52;11.80;;;27.30;99.90;;;;;;4956181;29;20487;-55
2023/06/29 07:09:27;;;;;;;26.50;11.85;;;27.30;99.90;;;;;;4955243;29;20028;-55
2023/06/29 07:11:53;;;;;;;16.25;8.73;;;27.40;99.90;;;;;;4956246;28;20039;-56
2023/06/29 07:14:21;;;;;;;23.33;9.82;;;27.30;99.90;;;;;;4956117;28;20395;-55
2023/06/29 07:16:47;;;;;;;;;;;27.30;99.90;;;;;;4956405;28;20032;-55
2023/06/29 07:19:14;;;;;;;23.00;9.50;;;27.40;99.90;;;;;;4956122;28;19906;-56
2023/06/29 07:21:40;;;;;;;23.70;9.50;;;27.40;99.90;;;;;;4956102;28;20102;-54
2023/06/29 07:24:07;;;;;;;17.83;10.35;;;27.40;99.90;;;;;;4955733;28;20067;-54
2023/06/29 07:26:33;;;;;;;19.38;12.63;;;27.40;99.90;;;;;;4954401;29;20038;-54
2023/06/29 07:28:59;;;;;;;24.05;11.32;;;27.40;99.90;;;;;;4956043;28;20024;-54
2023/06/29 07:31:29;;;;;;;18.45;10.13;;;27.40;99.90;;;;;;4956007;28;20055;-57
2023/06/29 07:33:56;;;;;;;16.90;10.00;;;27.40;99.90;;;;;;4955591;28;20098;-56
2023/06/29 07:36:25;;;;;;;19.27;12.05;;;27.40;99.90;;;;;;4955590;29;20027;-57
2023/06/29 07:38:51;;;;;;;19.80;9.40;;;27.40;99.90;;;;;;4955738;28;20496;-55
2023/06/29 07:41:18;;;;;;;18.50;9.50;;;27.50;99.90;;;;;;4955794;28;20035;-55
2023/06/29 07:43:52;;;;;;;20.80;8.50;;;27.50;99.90;;;;;;4955647;28;20023;-55
2023/06/29 07:46:18;;;;;;;26.75;9.23;;;27.50;99.90;;;;;;4954521;29;20041;-54
2023/06/29 07:48:43;;;;;;;24.25;12.55;;;27.60;99.90;;;;;;4955585;28;20023;-54
2023/06/29 07:51:10;;;;;;;23.80;10.13;;;27.60;99.90;;;;;;4955438;28;20431;-54
2023/06/29 07:53:36;;;;;;;16.70;8.50;;;27.60;99.90;;;;;;4955549;28;20433;-57
2023/06/29 07:56:02;;;;;;;19.83;8.75;;;27.60;99.90;;;;;;4955386;28;20058;-56
2023/06/29 07:58:28;;;;;;;17.33;8.60;;;27.60;99.90;;;;;;4938424;29;20054;-56
2023/06/29 08:00:55;;;;;;;15.88;8.30;;;27.70;99.90;;;;;;4953809;29;20488;-56
2023/06/29 08:03:21;;;;;;;14.73;8.30;;;27.70;99.90;;;;;;4955352;28;20072;-56
2023/06/29 08:05:47;;;;;;;19.65;8.70;;;27.70;99.90;;;;;;4955115;28;20126;-56
2023/06/29 08:08:13;;;;;;;26.60;9.23;;;27.70;99.90;;;;;;4955146;28;20098;-56
2023/06/29 08:10:38;;;;;;;19.17;8.18;;;27.80;99.90;;;;;;4953848;29;20031;-56
2023/06/29 08:13:06;;;;;;;22.60;8.52;;;27.80;99.90;;;;;;4955122;29;20138;-56
2023/06/29 08:15:32;;;;;;;23.23;9.07;;;27.80;99.90;;;;;;4953929;29;20457;-55
2023/06/29 08:17:58;;;;;;;18.38;9.80;;;27.70;99.90;;;;;;4955198;29;20366;-55
2023/06/29 08:20:23;;;;;;;17.90;8.27;;;27.80;99.90;;;;;;4954928;28;20031;-55
2023/06/29 08:22:49;;;;;;;23.83;9.45;;;27.70;99.90;;;;;;4954780;28;20035;-55
2023/06/29 08:25:15;;;;;;;17.60;7.82;;;27.70;99.90;;;;;;4954638;28;20035;-55
2023/06/29 08:27:41;;;;;;;17.58;8.18;;;27.80;99.90;;;;;;4954762;29;20069;-55
2023/06/29 08:30:08;;;;;;;19.77;8.15;;;27.70;99.90;;;;;;4954870;28;20035;-58
2023/06/29 08:32:34;;;;;;;15.45;7.80;;;27.80;99.90;;;;;;4954748;29;20421;-55
2023/06/29 08:35:00;;;;;;;16.00;7.38;;;27.80;99.90;;;;;;4954751;29;20035;-55
2023/06/29 08:37:28;;;;;;;10.35;7.15;;;27.90;99.90;;;;;;4953147;29;20023;-55
2023/06/29 08:39:54;;;;;;;20.58;8.05;;;27.90;99.90;;;;;;4954529;28;20051;-56
2023/06/29 08:42:20;;;;;;;17.20;8.07;;;27.90;99.90;;;;;;4954564;28;20095;-58
2023/06/29 08:44:46;;;;;;;17.67;8.45;;;27.90;99.90;;;;;;4953501;28;20035;-55
2023/06/29 08:47:14;;;;;;;13.18;7.65;;;27.90;99.90;;;;;;4954413;29;20030;-55
2023/06/29 08:49:44;;;;;;;21.50;8.55;;;28.00;99.90;;;;;;4954277;28;20027;-55
2023/06/29 08:52:15;;;;;;;15.07;7.25;;;27.90;99.90;;;;;;4954401;28;20037;-55
2023/06/29 08:54:42;;;;;;;15.25;7.57;;;28.00;99.90;;;;;;4954327;28;20050;-54
2023/06/29 08:57:11;;;;;;;13.75;7.07;;;28.00;99.90;;;;;;4954467;28;20490;-55
2023/06/29 08:59:37;;;;;;;23.38;7.78;;;28.10;99.90;;;;;;4954455;28;20030;-54
2023/06/29 09:02:06;;;;;;;15.10;7.03;;;28.10;99.90;;;;;;4954131;28;20047;-54
2023/06/29 09:04:32;;;;;;;18.67;6.75;;;28.10;99.90;;;;;;4954387;28;20511;-55
2023/06/29 09:06:58;;;;;;;13.02;7.00;;;28.10;99.90;;;;;;4954222;28;20097;-54
2023/06/29 09:09:24;;;;;;;16.08;6.57;;;28.20;99.90;;;;;;4952769;29;20140;-53
2023/06/29 09:11:51;;;;;;;17.38;6.63;;;28.20;99.90;;;;;;4954128;28;20023;-54
2023/06/29 09:14:17;;;;;;;10.98;6.07;;;28.30;99.90;;;;;;4950609;29;20098;-54
2023/06/29 09:16:54;;;;;;;19.00;6.68;;;28.30;99.90;;;;;;4952186;28;20155;-54
2023/06/29 09:19:22;;;;;;;14.30;6.20;;;28.30;99.90;;;;;;4950111;29;20083;-53
2023/06/29 09:21:48;;;;;;;13.18;6.30;;;28.40;99.90;;;;;;4952380;28;20051;-54
2023/06/29 09:24:18;;;;;;;12.07;6.82;;;28.40;99.90;;;;;;4953804;29;20031;-54
2023/06/29 09:26:48;;;;;;;9.30;6.45;;;28.50;99.90;;;;;;4953936;28;20074;-54
2023/06/29 09:29:14;;;;;;;11.63;7.40;;;28.50;99.90;;;;;;4953058;28;20027;-58
2023/06/29 09:31:40;;;;;;;11.27;6.95;;;28.60;99.90;;;;;;4953946;28;20031;-54
2023/06/29 09:34:19;;;;;;;10.38;6.93;;;28.60;99.90;;;;;;4952849;29;20027;-54
2023/06/29 09:36:46;;;;;;;11.65;6.70;;;28.70;99.90;;;;;;4953793;28;20019;-54
2023/06/29 09:39:12;;;;;;;16.40;7.13;;;28.70;99.90;;;;;;4953760;28;20031;-54
2023/06/29 09:41:46;;;;;;;21.20;7.82;;;28.80;99.90;;;;;;4953630;29;20038;-55
2023/06/29 09:44:16;;;;;;;13.20;6.72;;;28.80;99.90;;;;;;4953638;28;20024;-54
2023/06/29 09:46:42;;;;;;;10.05;6.72;;;28.80;99.90;;;;;;4953722;29;20162;-56
2023/06/29 09:49:09;;;;;;;15.82;6.13;;;28.90;99.90;;;;;;4953683;28;20468;-56
2023/06/29 09:51:35;;;;;;;15.23;6.45;;;28.90;99.90;;;;;;4953880;28;20047;-55
2023/06/29 09:54:02;;;;;;;13.73;7.47;;;29.00;99.90;;;;;;4953535;28;20106;-55
2023/06/29 09:56:30;;;;;;;13.75;8.07;;;29.00;99.90;;;;;;4955585;28;20113;-57
2023/06/29 09:58:56;;;;;;;12.52;7.07;;;29.00;99.90;;;;;;4957449;28;20107;-57
2023/06/29 10:01:28;;;;;;;9.30;6.30;;;29.10;99.90;;;;;;4955814;29;20047;-56
2023/06/29 10:03:54;;;;;;;10.63;7.03;;;29.10;99.90;;;;;;4957131;28;20082;-56
2023/06/29 10:06:38;;;;;;;11.88;6.30;;;29.20;99.90;;;;;;4957334;28;20448;-56
2023/06/29 10:09:04;;;;;;;13.10;7.63;;;29.20;99.90;;;;;;4957402;28;20547;-59
2023/06/29 10:11:34;;;;;;;18.50;10.53;;;29.20;99.90;;;;;;4957201;28;20074;-55
2023/06/29 10:14:04;;;;;;;10.40;6.95;;;29.30;99.90;;;;;;4957168;28;20380;-55
2023/06/29 10:16:34;;;;;;;14.88;7.07;;;29.30;99.90;;;;;;4956960;28;20031;-55
2023/06/29 10:19:13;;;;;;;12.98;7.80;;;29.30;99.90;;;;;;4957075;28;20027;-55
2023/06/29 10:21:40;;;;;;;14.95;8.18;;;29.20;99.90;;;;;;4957153;28;20102;-54
2023/06/29 10:24:06;;;;;;;9.03;5.83;;;29.30;99.90;;;;;;4957205;28;20019;-56
2023/06/29 10:26:33;;;;;;;20.33;6.97;;;29.30;99.90;;;;;;4957141;28;20122;-55
2023/06/29 10:28:59;;;;;;;10.38;6.10;;;29.30;99.90;;;;;;4957023;28;20027;-55
2023/06/29 10:31:32;;;;;;;11.60;6.00;;;29.40;99.90;;;;;;4957001;28;20425;-55
2023/06/29 10:33:58;;;;;;;12.68;6.95;;;29.40;99.90;;;;;;4956794;28;20383;-55
2023/06/29 10:36:25;;;;;;;21.77;13.15;;;29.40;99.90;;;;;;4956816;28;20106;-55
2023/06/29 10:38:51;;;;;;;16.27;6.90;;;29.40;99.90;;;;;;4956818;28;20026;-56
2023/06/29 10:41:28;;;;;;;12.77;7.20;;;29.40;99.90;;;;;;4956874;28;20032;-55
2023/06/29 10:44:00;;;;;;;11.97;6.47;;;29.40;99.90;;;;;;4956763;28;20258;-54
2023/06/29 10:46:46;;;;;;;9.63;6.95;;;29.40;99.90;;;;;;4955420;29;20043;-54
2023/06/29 10:49:27;;;;;;;11.38;7.75;;;29.40;99.90;;;;;;4955372;29;20023;-54
2023/06/29 10:51:55;;;;;;;9.80;6.78;;;29.40;99.90;;;;;;4956668;28;20064;-54
2023/06/29 10:54:24;;;;;;;11.13;7.20;;;29.40;99.90;;;;;;4956291;28;20023;-53
2023/06/29 10:57:29;;;;;;;11.30;7.00;;;29.40;99.90;;;;;;4956379;28;20023;-55
2023/06/29 10:59:55;;;;;;;12.30;6.75;;;29.40;99.90;;;;;;4956444;28;20086;-54
2023/06/29 11:02:22;;;;;;;9.63;6.60;;;29.40;99.90;;;;;;4954869;29;20047;-55
2023/06/29 11:04:48;;;;;;;11.88;6.38;;;29.50;99.90;;;;;;4956338;28;20043;-55
2023/06/29 11:07:14;;;;;;;11.38;6.65;;;29.50;99.90;;;;;;4955371;28;20066;-54
2023/06/29 11:09:40;;;;;;;18.02;7.60;;;29.50;99.90;;;;;;4956280;28;20070;-54
2023/06/29 11:12:06;;;;;;;16.77;7.60;;;29.60;99.90;;;;;;4956083;28;20055;-54
2023/06/29 11:14:38;;;;;;;13.13;6.72;;;29.60;99.90;;;;;;4956057;28;20471;-54
2023/06/29 11:17:07;;;;;;;17.60;7.07;;;29.70;99.90;;;;;;4956065;28;20363;-54
2023/06/29 11:19:33;;;;;;;11.65;7.07;;;29.70;99.90;;;;;;4956043;28;20419;-54
2023/06/29 11:22:00;;;;;;;13.45;7.20;;;29.70;99.90;;;;;;4954618;29;20030;-54
2023/06/29 11:24:25;;;;;;;11.57;7.13;;;29.80;99.90;;;;;;4954819;29;20063;-55
2023/06/29 11:26:53;;;;;;;13.20;8.48;;;29.80;99.90;;;;;;4955959;29;20035;-55
2023/06/29 11:29:21;;;;;;;12.63;6.97;;;29.90;99.90;;;;;;4955880;28;20055;-56
2023/06/29 11:31:46;;;;;;;10.30;6.55;;;29.90;99.90;;;;;;4955910;28;20078;-54
2023/06/29 11:34:13;;;;;;;9.45;6.50;;;29.90;99.90;;;;;;4955977;29;20414;-54
2023/06/29 11:36:39;;;;;;;9.75;7.20;;;29.90;99.90;;;;;;4954623;29;20027;-55
2023/06/29 11:39:08;;;;;;;11.88;7.85;;;29.90;99.90;;;;;;4955686;29;20527;-55
2023/06/29 11:41:37;;;;;;;16.50;11.63;;;29.90;99.90;;;;;;4955464;28;20062;-54
2023/06/29 11:44:03;;;;;;;11.77;6.32;;;29.90;99.90;;;;;;4953870;29;20027;-53
2023/06/29 11:46:33;;;;;;;12.98;7.05;;;29.90;99.90;;;;;;4953913;29;20526;-54
2023/06/29 11:49:00;;;;;;;22.52;11.02;;;30.00;99.90;;;;;;4955320;28;20023;-54
2023/06/29 11:51:30;;;;;;;14.05;8.30;;;30.00;99.90;;;;;;4955301;28;20432;-54
2023/06/29 11:53:57;;;;;;;11.90;9.90;;;30.10;99.90;;;;;;4954314;28;20036;-55
2023/06/29 11:56:37;;;;;;;17.30;8.45;;;30.10;99.90;;;;;;4952309;29;20027;-55
2023/06/29 11:59:15;;;;;;;23.55;13.38;;;30.10;99.90;;;;;;4953045;29;20032;-54
2023/06/29 12:01:43;;;;;;;22.30;11.32;;;30.10;99.90;;;;;;4953563;28;20106;-55
2023/06/29 12:04:09;;;;;;;21.15;11.45;;;30.10;99.90;;;;;;4955176;28;20031;-55
2023/06/29 12:06:36;;;;;;;12.13;8.93;;;30.20;99.90;;;;;;4954975;28;20035;-58
2023/06/29 12:09:11;;;;;;;14.68;7.55;;;30.20;99.90;;;;;;4952784;29;20024;-55
2023/06/29 12:11:37;;;;;;;23.33;9.10;;;30.20;99.90;;;;;;4954867;29;20043;-55
2023/06/29 12:14:03;;;;;;;12.27;7.10;;;30.20;99.90;;;;;;4954994;28;20074;-55
2023/06/29 12:16:28;;;;;;;16.08;7.15;;;30.30;99.90;;;;;;4954902;28;20357;-55
2023/06/29 12:18:54;;;;;;;13.77;6.80;;;30.30;99.90;;;;;;4955029;28;20030;-55
2023/06/29 12:21:21;;;;;;;13.88;8.07;;;30.40;99.90;;;;;;4954817;29;20023;-54
2023/06/29 12:23:47;;;;;;;17.33;12.93;;;30.40;99.90;;;;;;4954815;29;20072;-55
2023/06/29 12:26:15;;;;;;;15.57;10.20;;;30.50;99.90;;;;;;4953509;29;20406;-55
2023/06/29 12:28:40;;;;;;;12.05;9.35;;;30.60;99.90;;;;;;4954926;28;20023;-54
2023/06/29 12:31:07;;;;;;;16.65;8.88;;;30.60;99.90;;;;;;4954615;29;20039;-55
2023/06/29 12:33:33;;;;;;;14.15;8.65;;;30.70;99.90;;;;;;4954845;28;20531;-53
2023/06/29 12:35:59;;;;;;;12.18;9.43;;;30.70;99.90;;;;;;4954586;29;20431;-55
2023/06/29 12:38:25;;;;;;;17.77;12.13;;;30.80;99.90;;;;;;4953227;29;20037;-56